sensor_id;sensor_type;location;lat;lon;timestamp;pressure;altitude;pressure_sealevel;temperature;humidity
63819;BME280;49970;54.976;73.248;2023-12-22T00:03:45;101093.09;;;-0.13;100.00
63819;BME280;49970;54.976;73.248;2023-12-22T00:06:12;101082.78;;;-0.19;100.00
63819;BME280;49970;54.976;73.248;2023-12-22T00:08:38;101093.94;;;-0.13;100.00
63819;BME280;49970;54.976;73.248;2023-12-22T00:11:05;101091.34;;;-0.11;100.00
63819;BME280;49970;54.976;73.248;2023-12-22T00:13:31;101088.72;;;-0.13;100.00
63819;BME280;49970;54.976;73.248;2023-12-22T00:15:59;101081.81;;;-0.12;100.00
63819;BME280;49970;54.976;73.248;2023-12-22T00:18:27;101090.44;;;-0.10;100.00
63819;BME280;49970;54.976;73.248;2023-12-22T00:20:53;101088.69;;;-0.10;100.00
63819;BME280;49970;54.976;73.248;2023-12-22T00:23:19;101087.81;;;-0.09;100.00
63819;BME280;49970;54.976;73.248;2023-12-22T00:25:46;101084.34;;;-0.09;100.00
63819;BME280;49970;54.976;73.248;2023-12-22T00:28:32;101087.81;;;-0.09;100.00
63819;BME280;49970;54.976;73.248;2023-12-22T00:31:22;101093.91;;;-0.08;100.00
63819;BME280;49970;54.976;73.248;2023-12-22T00:33:53;101087.81;;;-0.09;100.00
63819;BME280;49970;54.976;73.248;2023-12-22T00:36:22;101092.16;;;-0.08;100.00
63819;BME280;49970;54.976;73.248;2023-12-22T00:38:54;101093.88;;;-0.07;100.00
63819;BME280;49970;54.976;73.248;2023-12-22T00:41:43;101093.91;;;-0.08;100.00
63819;BME280;49970;54.976;73.248;2023-12-22T00:44:55;101097.41;;;-0.11;100.00
63819;BME280;49970;54.976;73.248;2023-12-22T00:47:21;101103.44;;;-0.09;100.00
63819;BME280;49970;54.976;73.248;2023-12-22T00:49:48;101108.63;;;-0.09;100.00
63819;BME280;49970;54.976;73.248;2023-12-22T00:52:14;101113.00;;;-0.08;100.00
63819;BME280;49970;54.976;73.248;2023-12-22T00:54:40;101113.81;;;-0.06;100.00
63819;BME280;49970;54.976;73.248;2023-12-22T00:57:06;101110.31;;;-0.05;100.00
63819;BME280;49970;54.976;73.248;2023-12-22T00:59:33;101108.59;;;-0.04;100.00
63819;BME280;49970;54.976;73.248;2023-12-22T01:01:59;101116.41;;;-0.04;100.00
63819;BME280;49970;54.976;73.248;2023-12-22T01:04:25;101112.88;;;-0.02;100.00
63819;BME280;49970;54.976;73.248;2023-12-22T01:07:09;101118.09;;;-0.02;100.00
63819;BME280;49970;54.976;73.248;2023-12-22T01:09:36;101106.91;;;-0.07;100.00
63819;BME280;49970;54.976;73.248;2023-12-22T01:12:06;101116.44;;;-0.07;100.00
63819;BME280;49970;54.976;73.248;2023-12-22T01:14:33;101126.75;;;0.01;100.00
63819;BME280;49970;54.976;73.248;2023-12-22T01:16:59;101109.53;;;-0.08;100.00
63819;BME280;49970;54.976;73.248;2023-12-22T01:19:26;101134.50;;;0.04;100.00
63819;BME280;49970;54.976;73.248;2023-12-22T01:21:52;101138.84;;;0.05;100.00
63819;BME280;49970;54.976;73.248;2023-12-22T01:24:19;101137.97;;;0.06;100.00
63819;BME280;49970;54.976;73.248;2023-12-22T01:26:45;101139.69;;;0.07;100.00
63819;BME280;49970;54.976;73.248;2023-12-22T01:29:31;101137.94;;;0.07;100.00
63819;BME280;49970;54.976;73.248;2023-12-22T01:33:02;101151.84;;;0.06;100.00
63819;BME280;49970;54.976;73.248;2023-12-22T01:36:34;101161.41;;;0.06;100.00
63819;BME280;49970;54.976;73.248;2023-12-22T01:39:45;101170.97;;;0.05;100.00
63819;BME280;49970;54.976;73.248;2023-12-22T01:42:11;101167.47;;;0.06;100.00
63819;BME280;49970;54.976;73.248;2023-12-22T01:44:37;101170.94;;;0.07;100.00
63819;BME280;49970;54.976;73.248;2023-12-22T01:47:04;101166.59;;;0.07;100.00
63819;BME280;49970;54.976;73.248;2023-12-22T01:49:30;101174.41;;;0.07;100.00
63819;BME280;49970;54.976;73.248;2023-12-22T01:51:57;101177.84;;;0.08;100.00
63819;BME280;49970;54.976;73.248;2023-12-22T01:54:24;101172.66;;;0.09;100.00
63819;BME280;49970;54.976;73.248;2023-12-22T01:56:50;101171.78;;;0.09;100.00
63819;BME280;49970;54.976;73.248;2023-12-22T01:59:17;101172.66;;;0.09;100.00
63819;BME280;49970;54.976;73.248;2023-12-22T02:01:43;101170.91;;;0.10;100.00
63819;BME280;49970;54.976;73.248;2023-12-22T02:04:12;101165.66;;;0.11;100.00
63819;BME280;49970;54.976;73.248;2023-12-22T02:07:01;101174.38;;;0.10;100.00
63819;BME280;49970;54.976;73.248;2023-12-22T02:10:30;101169.16;;;0.10;100.00
63819;BME280;49970;54.976;73.248;2023-12-22T02:14:01;101180.47;;;0.09;100.00
63819;BME280;49970;54.976;73.248;2023-12-22T02:17:49;101172.75;;;0.02;100.00
63819;BME280;49970;54.976;73.248;2023-12-22T02:20:19;101180.47;;;0.08;100.00
63819;BME280;49970;54.976;73.248;2023-12-22T02:22:51;101188.31;;;0.06;100.00
63819;BME280;49970;54.976;73.248;2023-12-22T02:25:18;101183.06;;;0.08;100.00
63819;BME280;49970;54.976;73.248;2023-12-22T02:27:47;101188.28;;;0.09;100.00
63819;BME280;49970;54.976;73.248;2023-12-22T02:30:28;101199.56;;;0.08;100.00
63819;BME280;49970;54.976;73.248;2023-12-22T02:33:02;101207.38;;;0.10;100.00
63819;BME280;49970;54.976;73.248;2023-12-22T02:35:41;101203.09;;;0.04;100.00
63819;BME280;49970;54.976;73.248;2023-12-22T02:38:09;101193.66;;;-0.05;100.00
63819;BME280;49970;54.976;73.248;2023-12-22T02:40:38;101209.97;;;0.10;100.00
63819;BME280;49970;54.976;73.248;2023-12-22T02:43:05;101218.66;;;0.10;100.00
63819;BME280;49970;54.976;73.248;2023-12-22T02:45:32;101223.00;;;0.10;100.00
63819;BME280;49970;54.976;73.248;2023-12-22T02:47:59;101211.69;;;0.11;100.00
63819;BME280;49970;54.976;73.248;2023-12-22T02:50:25;101213.41;;;0.12;100.00
63819;BME280;49970;54.976;73.248;2023-12-22T02:52:51;101222.97;;;0.13;100.00
63819;BME280;49970;54.976;73.248;2023-12-22T02:55:18;101216.88;;;0.14;100.00
63819;BME280;49970;54.976;73.248;2023-12-22T02:57:44;101226.44;;;0.13;100.00
63819;BME280;49970;54.976;73.248;2023-12-22T03:00:11;101217.75;;;0.13;100.00
63819;BME280;49970;54.976;73.248;2023-12-22T03:02:37;101225.53;;;0.14;100.00
63819;BME280;49970;54.976;73.248;2023-12-22T03:05:04;101225.53;;;0.14;100.00
63819;BME280;49970;54.976;73.248;2023-12-22T03:07:31;101221.22;;;0.13;100.00
63819;BME280;49970;54.976;73.248;2023-12-22T03:09:57;101226.44;;;0.13;100.00
63819;BME280;49970;54.976;73.248;2023-12-22T03:12:23;101221.25;;;0.10;100.00
63819;BME280;49970;54.976;73.248;2023-12-22T03:14:49;101236.84;;;0.13;100.00
63819;BME280;49970;54.976;73.248;2023-12-22T03:17:16;101233.38;;;0.13;100.00
63819;BME280;49970;54.976;73.248;2023-12-22T03:19:42;101246.41;;;0.13;100.00
63819;BME280;49970;54.976;73.248;2023-12-22T03:22:08;101247.25;;;0.12;100.00
63819;BME280;49970;54.976;73.248;2023-12-22T03:24:35;101249.00;;;0.11;100.00
63819;BME280;49970;54.976;73.248;2023-12-22T03:27:03;101242.94;;;0.11;100.00
63819;BME280;49970;54.976;73.248;2023-12-22T03:29:29;101250.75;;;0.11;100.00
63819;BME280;49970;54.976;73.248;2023-12-22T03:31:55;101247.31;;;0.10;100.00
63819;BME280;49970;54.976;73.248;2023-12-22T03:34:21;101242.97;;;0.09;100.00
63819;BME280;49970;54.976;73.248;2023-12-22T03:36:48;101252.53;;;0.07;100.00
63819;BME280;49970;54.976;73.248;2023-12-22T03:39:15;101256.00;;;0.09;100.00
63819;BME280;49970;54.976;73.248;2023-12-22T03:41:41;101261.22;;;0.08;100.00
63819;BME280;49970;54.976;73.248;2023-12-22T03:44:08;101270.78;;;0.09;100.00
63819;BME280;49970;54.976;73.248;2023-12-22T03:46:34;101267.28;;;0.08;100.00
63819;BME280;49970;54.976;73.248;2023-12-22T03:49:00;101280.31;;;0.10;100.00
63819;BME280;49970;54.976;73.248;2023-12-22T03:51:27;101284.63;;;0.11;100.00
63819;BME280;49970;54.976;73.248;2023-12-22T03:53:53;101282.91;;;0.10;100.00
63819;BME280;49970;54.976;73.248;2023-12-22T03:56:19;101282.91;;;0.10;100.00
63819;BME280;49970;54.976;73.248;2023-12-22T03:58:46;101290.69;;;0.11;100.00
63819;BME280;49970;54.976;73.248;2023-12-22T04:01:14;101285.47;;;0.11;100.00
63819;BME280;49970;54.976;73.248;2023-12-22T04:03:40;101281.13;;;0.12;100.00
63819;BME280;49970;54.976;73.248;2023-12-22T04:06:07;101285.47;;;0.13;100.00
63819;BME280;49970;54.976;73.248;2023-12-22T04:08:33;101280.28;;;0.11;100.00
63819;BME280;49970;54.976;73.248;2023-12-22T04:10:59;101282.88;;;0.11;100.00
63819;BME280;49970;54.976;73.248;2023-12-22T04:13:25;101282.06;;;0.09;100.00
63819;BME280;49970;54.976;73.248;2023-12-22T04:15:52;101282.88;;;0.11;100.00
63819;BME280;49970;54.976;73.248;2023-12-22T04:18:18;101285.47;;;0.11;100.00
63819;BME280;49970;54.976;73.248;2023-12-22T04:20:44;101286.34;;;0.12;100.00
63819;BME280;49970;54.976;73.248;2023-12-22T04:23:10;101288.97;;;0.10;100.00
63819;BME280;49970;54.976;73.248;2023-12-22T04:25:37;101299.41;;;0.10;100.00
63819;BME280;49970;54.976;73.248;2023-12-22T04:28:03;101296.00;;;0.05;100.00
63819;BME280;49970;54.976;73.248;2023-12-22T04:30:29;101302.88;;;0.09;100.00
63819;BME280;49970;54.976;73.248;2023-12-22T04:32:56;101304.63;;;0.09;100.00
63819;BME280;49970;54.976;73.248;2023-12-22T04:35:22;101303.78;;;0.07;100.00
63819;BME280;49970;54.976;73.248;2023-12-22T04:37:48;101315.94;;;0.06;100.00
63819;BME280;49970;54.976;73.248;2023-12-22T04:40:15;101319.41;;;0.07;100.00
63819;BME280;49970;54.976;73.248;2023-12-22T04:42:41;101319.41;;;0.07;100.00
63819;BME280;49970;54.976;73.248;2023-12-22T04:45:08;101324.63;;;0.04;100.00
63819;BME280;49970;54.976;73.248;2023-12-22T04:47:34;101321.19;;;0.05;100.00
63819;BME280;49970;54.976;73.248;2023-12-22T04:50:00;101322.91;;;0.04;100.00
63819;BME280;49970;54.976;73.248;2023-12-22T04:52:27;101319.44;;;0.05;100.00
63819;BME280;49970;54.976;73.248;2023-12-22T04:54:54;101325.47;;;0.07;100.00
63819;BME280;49970;54.976;73.248;2023-12-22T04:57:20;101330.69;;;0.09;100.00
63819;BME280;49970;54.976;73.248;2023-12-22T05:00:08;101322.88;;;0.09;100.00
63819;BME280;49970;54.976;73.248;2023-12-22T05:02:43;101327.22;;;0.07;100.00
63819;BME280;49970;54.976;73.248;2023-12-22T05:05:10;101325.44;;;0.10;100.00
63819;BME280;49970;54.976;73.248;2023-12-22T05:07:38;101327.19;;;0.10;100.00
63819;BME280;49970;54.976;73.248;2023-12-22T05:10:04;101334.97;;;0.11;100.00
63819;BME280;49970;54.976;73.248;2023-12-22T05:12:30;101331.47;;;0.12;100.00
63819;BME280;49970;54.976;73.248;2023-12-22T05:14:57;101328.00;;;0.15;100.00
63819;BME280;49970;54.976;73.248;2023-12-22T05:17:23;101334.94;;;0.17;100.00
63819;BME280;49970;54.976;73.248;2023-12-22T05:19:49;101324.47;;;0.19;100.00
63819;BME280;49970;54.976;73.248;2023-12-22T05:22:15;101314.06;;;0.16;100.00
63819;BME280;49970;54.976;73.248;2023-12-22T05:24:42;101330.41;;;0.29;100.00
63819;BME280;49970;54.976;73.248;2023-12-22T05:27:08;101326.94;;;0.31;100.00
63819;BME280;49970;54.976;73.248;2023-12-22T05:29:35;101328.63;;;0.35;100.00
63819;BME280;49970;54.976;73.248;2023-12-22T05:32:01;101332.91;;;0.39;100.00
63819;BME280;49970;54.976;73.248;2023-12-22T05:34:27;101330.22;;;0.44;100.00
63819;BME280;49970;54.976;73.248;2023-12-22T05:36:56;101341.50;;;0.47;100.00
63819;BME280;49970;54.976;73.248;2023-12-22T05:39:22;101349.25;;;0.52;100.00
63819;BME280;49970;54.976;73.248;2023-12-22T05:41:49;101347.47;;;0.56;100.00
63819;BME280;49970;54.976;73.248;2023-12-22T05:44:15;101347.44;;;0.57;100.00
63819;BME280;49970;54.976;73.248;2023-12-22T05:46:41;101348.25;;;0.61;100.00
63819;BME280;49970;54.976;73.248;2023-12-22T05:49:07;101346.50;;;0.63;100.00
63819;BME280;49970;54.976;73.248;2023-12-22T05:51:40;101346.44;;;0.66;100.00
63819;BME280;49970;54.976;73.248;2023-12-22T05:54:09;101351.63;;;0.69;100.00
63819;BME280;49970;54.976;73.248;2023-12-22T05:56:38;101348.97;;;0.70;100.00
63819;BME280;49970;54.976;73.248;2023-12-22T05:59:04;101365.50;;;0.71;100.00
63819;BME280;49970;54.976;73.248;2023-12-22T06:01:46;101365.44;;;0.74;100.00
63819;BME280;49970;54.976;73.248;2023-12-22T06:04:13;101364.63;;;0.70;100.00
63819;BME280;49970;54.976;73.248;2023-12-22T06:06:39;101358.56;;;0.70;100.00
63819;BME280;49970;54.976;73.248;2023-12-22T06:09:05;101335.25;;;0.58;100.00
63819;BME280;49970;54.976;73.248;2023-12-22T06:11:32;101352.44;;;0.71;100.00
63819;BME280;49970;54.976;73.248;2023-12-22T06:13:58;101352.44;;;0.72;100.00
63819;BME280;49970;54.976;73.248;2023-12-22T06:16:24;101350.72;;;0.71;100.00
63819;BME280;49970;54.976;73.248;2023-12-22T06:18:50;101349.84;;;0.71;100.00
63819;BME280;49970;54.976;73.248;2023-12-22T06:21:17;101344.63;;;0.71;100.00
63819;BME280;49970;54.976;73.248;2023-12-22T06:23:43;101341.25;;;0.64;100.00
63819;BME280;49970;54.976;73.248;2023-12-22T06:26:11;101355.91;;;0.73;100.00
63819;BME280;49970;54.976;73.248;2023-12-22T06:28:37;101361.97;;;0.75;100.00
63819;BME280;49970;54.976;73.248;2023-12-22T06:31:06;101360.25;;;0.76;100.00
63819;BME280;49970;54.976;73.248;2023-12-22T06:33:33;101366.28;;;0.78;100.00
63819;BME280;49970;54.976;73.248;2023-12-22T06:35:59;101363.66;;;0.78;100.00
63819;BME280;49970;54.976;73.248;2023-12-22T06:38:46;101368.81;;;0.82;100.00
63819;BME280;49970;54.976;73.248;2023-12-22T06:41:29;101365.34;;;0.82;100.00
63819;BME280;49970;54.976;73.248;2023-12-22T06:43:56;101382.72;;;0.84;100.00
63819;BME280;49970;54.976;73.248;2023-12-22T06:46:24;101375.75;;;0.83;100.00
63819;BME280;49970;54.976;73.248;2023-12-22T06:48:55;101373.16;;;0.83;100.00
63819;BME280;49970;54.976;73.248;2023-12-22T06:51:24;101373.16;;;0.83;100.00
63819;BME280;49970;54.976;73.248;2023-12-22T06:53:51;101361.84;;;0.83;100.00
63819;BME280;49970;54.976;73.248;2023-12-22T06:56:26;101367.06;;;0.83;100.00
63819;BME280;49970;54.976;73.248;2023-12-22T06:58:55;101368.81;;;0.82;100.00
63819;BME280;49970;54.976;73.248;2023-12-22T07:01:43;101376.66;;;0.82;100.00
63819;BME280;49970;54.976;73.248;2023-12-22T07:08:33;101371.59;;;0.70;100.00
63819;BME280;49970;54.976;73.248;2023-12-22T07:12:04;101378.63;;;0.65;100.00
63819;BME280;49970;54.976;73.248;2023-12-22T07:15:35;101378.72;;;0.57;100.00
63819;BME280;49970;54.976;73.248;2023-12-22T07:18:46;101381.34;;;0.56;100.00
63819;BME280;49970;54.976;73.248;2023-12-22T07:21:16;101364.00;;;0.55;100.00
63819;BME280;49970;54.976;73.248;2023-12-22T07:23:44;101374.41;;;0.56;100.00
63819;BME280;49970;54.976;73.248;2023-12-22T07:26:10;101367.50;;;0.52;100.00
63819;BME280;49970;54.976;73.248;2023-12-22T07:28:39;101363.13;;;0.53;100.00
63819;BME280;49970;54.976;73.248;2023-12-22T07:31:05;101362.31;;;0.51;100.00
63819;BME280;49970;54.976;73.248;2023-12-22T07:33:31;101371.00;;;0.49;100.00
63819;BME280;49970;54.976;73.248;2023-12-22T07:35:58;101367.56;;;0.47;100.00
63819;BME280;49970;54.976;73.248;2023-12-22T07:38:24;101364.13;;;0.44;100.00
63819;BME280;49970;54.976;73.248;2023-12-22T07:40:50;101363.28;;;0.42;100.00
63819;BME280;49970;54.976;73.248;2023-12-22T07:43:16;101368.53;;;0.39;100.00
63819;BME280;49970;54.976;73.248;2023-12-22T07:45:43;101372.88;;;0.38;100.00
63819;BME280;49970;54.976;73.248;2023-12-22T07:48:09;101367.69;;;0.35;100.00
63819;BME280;49970;54.976;73.248;2023-12-22T07:50:35;101353.91;;;0.27;100.00
63819;BME280;49970;54.976;73.248;2023-12-22T07:53:02;101372.06;;;0.33;100.00
63819;BME280;49970;54.976;73.248;2023-12-22T07:55:28;101360.81;;;0.31;100.00
63819;BME280;49970;54.976;73.248;2023-12-22T07:57:54;101368.63;;;0.31;100.00
63819;BME280;49970;54.976;73.248;2023-12-22T08:00:21;101373.81;;;0.33;100.00
63819;BME280;49970;54.976;73.248;2023-12-22T08:02:47;101376.44;;;0.31;100.00
63819;BME280;49970;54.976;73.248;2023-12-22T08:05:14;101383.41;;;0.31;100.00
63819;BME280;49970;54.976;73.248;2023-12-22T08:07:41;101368.69;;;0.25;100.00
63819;BME280;49970;54.976;73.248;2023-12-22T08:10:08;101380.78;;;0.31;100.00
63819;BME280;49970;54.976;73.248;2023-12-22T08:12:34;101371.25;;;0.30;100.00
63819;BME280;49970;54.976;73.248;2023-12-22T08:15:01;101367.75;;;0.29;100.00
63819;BME280;49970;54.976;73.248;2023-12-22T08:17:29;101360.84;;;0.30;100.00
63819;BME280;49970;54.976;73.248;2023-12-22T08:19:55;101369.50;;;0.30;100.00
63819;BME280;49970;54.976;73.248;2023-12-22T08:22:23;101367.75;;;0.31;100.00
63819;BME280;49970;54.976;73.248;2023-12-22T08:25:09;101366.91;;;0.29;100.00
63819;BME280;49970;54.976;73.248;2023-12-22T08:28:39;101398.13;;;0.33;100.00
63819;BME280;49970;54.976;73.248;2023-12-22T08:32:11;101396.41;;;0.34;100.00
63819;BME280;49970;54.976;73.248;2023-12-22T08:35:41;101379.88;;;0.35;100.00
63819;BME280;49970;54.976;73.248;2023-12-22T08:39:12;101399.00;;;0.32;100.00
63819;BME280;49970;54.976;73.248;2023-12-22T08:42:44;101388.59;;;0.29;99.83
63819;BME280;49970;54.976;73.248;2023-12-22T08:46:14;101392.09;;;0.28;99.76
63819;BME280;49970;54.976;73.248;2023-12-22T08:49:45;101396.47;;;0.26;99.93
63819;BME280;49970;54.976;73.248;2023-12-22T08:53:16;101393.88;;;0.24;99.92
63819;BME280;49970;54.976;73.248;2023-12-22T08:55:59;101393.03;;;0.22;100.00
63819;BME280;49970;54.976;73.248;2023-12-22T08:58:27;101399.09;;;0.24;100.00
63819;BME280;49970;54.976;73.248;2023-12-22T09:01:01;101391.25;;;0.24;100.00
63819;BME280;49970;54.976;73.248;2023-12-22T09:03:33;101372.31;;;0.13;99.75
63819;BME280;49970;54.976;73.248;2023-12-22T09:06:06;101397.34;;;0.25;99.79
63819;BME280;49970;54.976;73.248;2023-12-22T09:08:36;101374.09;;;0.10;99.63
63819;BME280;49970;54.976;73.248;2023-12-22T09:11:06;101393.00;;;0.24;99.73
63819;BME280;49970;54.976;73.248;2023-12-22T09:13:38;101408.66;;;0.26;99.74
63819;BME280;49970;54.976;73.248;2023-12-22T09:16:08;101406.91;;;0.24;99.60
63819;BME280;49970;54.976;73.248;2023-12-22T09:18:37;101414.72;;;0.24;99.96
63819;BME280;49970;54.976;73.248;2023-12-22T09:21:25;101402.59;;;0.22;99.68
63819;BME280;49970;54.976;73.248;2023-12-22T09:24:37;101411.25;;;0.24;99.56
63819;BME280;49970;54.976;73.248;2023-12-22T09:27:04;101408.66;;;0.24;99.17
63819;BME280;49970;54.976;73.248;2023-12-22T09:29:30;101395.69;;;0.18;99.49
63819;BME280;49970;54.976;73.248;2023-12-22T09:32:01;101406.06;;;0.22;99.12
63819;BME280;49970;54.976;73.248;2023-12-22T09:34:27;101406.06;;;0.22;99.21
63819;BME280;49970;54.976;73.248;2023-12-22T09:36:54;101403.50;;;0.19;98.85
63819;BME280;49970;54.976;73.248;2023-12-22T09:39:20;101408.69;;;0.22;99.09
63819;BME280;49970;54.976;73.248;2023-12-22T09:41:50;101418.22;;;0.23;98.96
63819;BME280;49970;54.976;73.248;2023-12-22T09:44:19;101415.66;;;0.19;99.12
63819;BME280;49970;54.976;73.248;2023-12-22T09:46:49;101420.88;;;0.19;99.26
63819;BME280;49970;54.976;73.248;2023-12-22T09:49:19;101412.22;;;0.17;99.11
63819;BME280;49970;54.976;73.248;2023-12-22T09:51:50;101407.09;;;0.06;99.06
63819;BME280;49970;54.976;73.248;2023-12-22T09:54:16;101419.19;;;0.15;99.02
63819;BME280;49970;54.976;73.248;2023-12-22T09:56:44;101426.06;;;0.22;99.27
63819;BME280;49970;54.976;73.248;2023-12-22T09:59:12;101426.06;;;0.20;98.58
63819;BME280;49970;54.976;73.248;2023-12-22T10:01:42;101419.13;;;0.21;98.59
63819;BME280;49970;54.976;73.248;2023-12-22T10:04:10;101421.81;;;0.13;98.55
63819;BME280;49970;54.976;73.248;2023-12-22T10:06:36;101428.72;;;0.16;98.40
63819;BME280;49970;54.976;73.248;2023-12-22T10:09:05;101408.03;;;0.02;98.33
63819;BME280;49970;54.976;73.248;2023-12-22T10:11:34;101444.38;;;0.11;98.40
63819;BME280;49970;54.976;73.248;2023-12-22T10:14:18;101442.75;;;0.03;98.35
63819;BME280;49970;54.976;73.248;2023-12-22T10:16:49;101445.38;;;0.01;98.24
63819;BME280;49970;54.976;73.248;2023-12-22T10:19:16;101441.94;;;-0.03;98.67
63819;BME280;49970;54.976;73.248;2023-12-22T10:21:42;101450.63;;;-0.05;98.68
63819;BME280;49970;54.976;73.248;2023-12-22T10:24:38;101456.72;;;-0.09;98.38
63819;BME280;49970;54.976;73.248;2023-12-22T10:27:14;101448.97;;;-0.14;98.67
63819;BME280;49970;54.976;73.248;2023-12-22T10:29:42;101451.56;;;-0.14;98.18
63819;BME280;49970;54.976;73.248;2023-12-22T10:32:08;101444.69;;;-0.21;98.11
63819;BME280;49970;54.976;73.248;2023-12-22T10:34:35;101451.63;;;-0.20;98.47
63819;BME280;49970;54.976;73.248;2023-12-22T10:37:01;101445.59;;;-0.23;98.62
63819;BME280;49970;54.976;73.248;2023-12-22T10:39:28;101445.59;;;-0.27;98.79
63819;BME280;49970;54.976;73.248;2023-12-22T10:41:58;101443.00;;;-0.30;98.34
63819;BME280;49970;54.976;73.248;2023-12-22T10:44:25;101431.81;;;-0.39;98.31
63819;BME280;49970;54.976;73.248;2023-12-22T10:46:52;101452.63;;;-0.33;98.36
63819;BME280;49970;54.976;73.248;2023-12-22T10:49:21;101448.31;;;-0.40;98.48
63819;BME280;49970;54.976;73.248;2023-12-22T10:51:47;101468.25;;;-0.38;98.43
63819;BME280;49970;54.976;73.248;2023-12-22T10:54:14;101462.22;;;-0.41;98.63
63819;BME280;49970;54.976;73.248;2023-12-22T10:56:40;101462.22;;;-0.41;98.48
63819;BME280;49970;54.976;73.248;2023-12-22T10:59:08;101457.00;;;-0.43;99.12
63819;BME280;49970;54.976;73.248;2023-12-22T11:01:38;101462.22;;;-0.43;98.73
63819;BME280;49970;54.976;73.248;2023-12-22T11:04:09;101463.97;;;-0.43;99.15
63819;BME280;49970;54.976;73.248;2023-12-22T11:06:41;101456.16;;;-0.46;99.06
63819;BME280;49970;54.976;73.248;2023-12-22T11:09:09;101449.28;;;-0.54;99.22
63819;BME280;49970;54.976;73.248;2023-12-22T11:11:40;101459.66;;;-0.51;99.13
63819;BME280;49970;54.976;73.248;2023-12-22T11:14:07;101478.78;;;-0.50;98.71
63819;BME280;49970;54.976;73.248;2023-12-22T11:16:34;101461.41;;;-0.51;98.76
63819;BME280;49970;54.976;73.248;2023-12-22T11:19:02;101468.38;;;-0.53;98.69
63819;BME280;49970;54.976;73.248;2023-12-22T11:21:30;101472.72;;;-0.54;99.28
63819;BME280;49970;54.976;73.248;2023-12-22T11:23:57;101468.38;;;-0.55;98.88
63819;BME280;49970;54.976;73.248;2023-12-22T11:26:24;101474.47;;;-0.57;98.96
63819;BME280;49970;54.976;73.248;2023-12-22T11:28:52;101468.41;;;-0.58;98.83
63819;BME280;49970;54.976;73.248;2023-12-22T11:31:18;101469.25;;;-0.59;98.92
63819;BME280;49970;54.976;73.248;2023-12-22T11:33:58;101475.38;;;-0.61;98.79
63819;BME280;49970;54.976;73.248;2023-12-22T11:36:25;101480.56;;;-0.61;99.01
63819;BME280;49970;54.976;73.248;2023-12-22T11:38:52;101477.97;;;-0.64;99.13
63819;BME280;49970;54.976;73.248;2023-12-22T11:41:22;101476.25;;;-0.65;99.17
63819;BME280;49970;54.976;73.248;2023-12-22T11:43:51;101460.72;;;-0.74;99.07
63819;BME280;49970;54.976;73.248;2023-12-22T11:46:17;101472.78;;;-0.67;98.86
63819;BME280;49970;54.976;73.248;2023-12-22T11:48:48;101472.81;;;-0.69;98.96
63819;BME280;49970;54.976;73.248;2023-12-22T11:51:16;101470.22;;;-0.70;99.39
63819;BME280;49970;54.976;73.248;2023-12-22T11:53:43;101461.56;;;-0.74;98.94
63819;BME280;49970;54.976;73.248;2023-12-22T11:56:29;101466.78;;;-0.74;99.21
63819;BME280;49970;54.976;73.248;2023-12-22T12:02:54;101473.75;;;-0.79;99.11
63819;BME280;49970;54.976;73.248;2023-12-22T12:05:21;101481.56;;;-0.82;99.11
63819;BME280;49970;54.976;73.248;2023-12-22T12:07:49;101487.63;;;-0.85;98.80
63819;BME280;49970;54.976;73.248;2023-12-22T12:13:11;101487.66;;;-0.88;98.67
63819;BME280;49970;54.976;73.248;2023-12-22T12:15:42;101486.81;;;-0.91;99.34
63819;BME280;49970;54.976;73.248;2023-12-22T12:18:08;101480.78;;;-1.01;99.11
63819;BME280;49970;54.976;73.248;2023-12-22T12:20:46;101486.84;;;-0.96;98.99
63819;BME280;49970;54.976;73.248;2023-12-22T12:23:12;101487.72;;;-0.98;98.98
63819;BME280;49970;54.976;73.248;2023-12-22T12:25:47;101489.44;;;-1.01;98.98
63819;BME280;49970;54.976;73.248;2023-12-22T12:28:14;101493.78;;;-1.01;99.01
63819;BME280;49970;54.976;73.248;2023-12-22T12:30:44;101495.53;;;-1.03;99.36
63819;BME280;49970;54.976;73.248;2023-12-22T12:33:12;101495.53;;;-1.03;99.06
63819;BME280;49970;54.976;73.248;2023-12-22T12:35:40;101498.13;;;-1.05;99.37
63819;BME280;49970;54.976;73.248;2023-12-22T12:45:26;101486.91;;;-1.11;99.14
63819;BME280;49970;54.976;73.248;2023-12-22T12:48:37;101500.75;;;-1.14;99.61
63819;BME280;49970;54.976;73.248;2023-12-22T12:51:07;101504.25;;;-1.16;99.48
63819;BME280;49970;54.976;73.248;2023-12-22T12:53:40;101504.25;;;-1.16;99.33
63819;BME280;49970;54.976;73.248;2023-12-22T12:56:06;101488.69;;;-1.21;99.35
63819;BME280;49970;54.976;73.248;2023-12-22T12:58:43;101498.19;;;-1.18;99.74
63819;BME280;49970;54.976;73.248;2023-12-22T13:01:10;101516.41;;;-1.20;99.63
63819;BME280;49970;54.976;73.248;2023-12-22T13:03:55;101499.94;;;-1.23;99.66
63819;BME280;49970;54.976;73.248;2023-12-22T13:06:22;101494.75;;;-1.28;99.56
63819;BME280;49970;54.976;73.248;2023-12-22T13:08:51;101506.91;;;-1.32;99.32
63819;BME280;49970;54.976;73.248;2023-12-22T13:11:22;101506.94;;;-1.41;99.07
63819;BME280;49970;54.976;73.248;2023-12-22T13:13:49;101495.69;;;-1.52;99.27
63819;BME280;49970;54.976;73.248;2023-12-22T13:16:25;101512.16;;;-1.53;99.53
63819;BME280;49970;54.976;73.248;2023-12-22T13:18:59;101487.94;;;-1.58;99.32
63819;BME280;49970;54.976;73.248;2023-12-22T13:21:28;101493.13;;;-1.61;99.62
63819;BME280;49970;54.976;73.248;2023-12-22T13:24:15;101504.41;;;-1.67;99.29
63819;BME280;49970;54.976;73.248;2023-12-22T13:26:42;101497.47;;;-1.71;99.33
63819;BME280;49970;54.976;73.248;2023-12-22T13:29:10;101490.53;;;-1.73;99.39